Pagina principale
METAR-TAF:

METAR-TAF

Aeroporti :

Aeroporto di Lisbona

Lisbona, Portogallo

latitudine: 38-46N, longitudine: 009-08W, altezza: 114 m

Osservazione

Il bollettino è stato emesso 20 minuti fa, alle 13:00 UTC
Vento 14 kt da nord/nord-ovest, variando fra ovest/nord-ovest e nord
Temperature 24°C
Umidità 57%
Pressione 1016 hPa
Visibilità 10 km o più
Poco nuvoloso ad un'altezza di 2500 ft

METAR: LPPT 271300Z 33014KT 290V360 9999 FEW025 24/15 Q1016

Ora: 14:20 (13:20 UTC)

Previsione

Il bollettino è stato emesso 2 ore e 20 minuti fa, alle 11:00 UTC
Previsione valida dal 27 alle 12 UTC al 28 alle 18 UTC
Vento 17 kt da nord/nord-ovest
Visibilità 10 km o più
nessuna nube inferiore a 1500 m e nessun cumulonembo
Temporaneamente
dal 27 alle 12 UTC al 28 alle 18 UTC
Vento 20 kt da nord/nord-ovest con raffiche fino a 30 kt

TAF: LPPT 271100Z 2712/2818 34017KT CAVOK TEMPO 2712/2818 33020G30KT

Osservazioni e previsioni meteorologiche di più di 4000 aeroporti (messaggi METAR e TAF).

Le stazioni disponibili sono rappresentate dai dischi gialli e rossi sulla carta.

Puntare il mouse per vedere il nome della stazione.

Clicca sopra per visualizzare le osservazioni e previsioni meteorologiche.

Per cambiare la mappa : fare clic sui pulsanti verdi con una croce nera per ingrandire, il pulsante verde con un trattino per diminuire, o sulla freccia verde per le mappe adiacenti.


METAR-TAF: